Time,TemperatureF,DewpointF,PressureIn,WindDirection,WindDirectionDegrees,WindSpeedMPH,WindSpeedGustMPH,Humidity,HourlyPrecipIn,Conditions,Clouds,dailyrainin,SolarRadiationWatts/m^2,SoftwareType,DateUTC
2013-07-07 00:01:00,55.0,43.0,-100.00,SW,221,6.0,11.0,63,0.00,,,0.07,0.000000,,2013-07-07 06:01:00,
2013-07-07 00:32:00,54.0,43.0,-100.00,South,184,2.0,9.0,66,0.00,,,0.07,0.000000,,2013-07-07 06:32:00,
2013-07-07 00:43:00,54.0,43.0,-100.00,South,184,2.0,9.0,66,0.00,,,0.07,0.000000,,2013-07-07 06:43:00,
2013-07-07 00:52:00,54.0,43.0,-100.00,South,184,2.0,9.0,66,0.00,,,0.07,0.000000,,2013-07-07 06:52:00,
2013-07-07 01:02:00,54.0,43.0,-100.00,South,184,2.0,9.0,66,0.00,,,0.07,0.000000,,2013-07-07 07:02:00,
2013-07-07 01:33:00,50.0,42.0,-100.00,NW,320,2.0,4.0,75,0.00,,,0.01,0.000000,,2013-07-07 07:33:00,
2013-07-07 01:44:00,50.0,42.0,-100.00,NW,320,2.0,4.0,75,0.00,,,0.01,0.000000,,2013-07-07 07:44:00,
2013-07-07 01:53:00,50.0,42.0,-100.00,NW,320,2.0,4.0,75,0.00,,,0.01,0.000000,,2013-07-07 07:53:00,
2013-07-07 02:02:00,50.0,42.0,-100.00,NW,320,2.0,4.0,75,0.00,,,0.01,0.000000,,2013-07-07 08:02:00,
2013-07-07 02:34:00,50.0,43.0,-100.00,West,280,2.0,4.0,76,0.00,,,0.01,0.000000,,2013-07-07 08:34:00,
2013-07-07 02:44:00,50.0,43.0,-100.00,West,280,2.0,4.0,76,0.00,,,0.01,0.000000,,2013-07-07 08:44:00,
2013-07-07 02:53:00,50.0,43.0,-100.00,West,280,2.0,4.0,76,0.00,,,0.01,0.000000,,2013-07-07 08:53:00,
2013-07-07 03:02:00,50.0,43.0,-100.00,West,280,2.0,4.0,76,0.00,,,0.01,0.000000,,2013-07-07 09:02:00,
2013-07-07 03:34:00,49.0,46.0,-100.00,WSW,256,2.0,7.0,91,0.01,,,0.01,0.000000,,2013-07-07 09:34:00,
2013-07-07 03:43:00,49.0,46.0,-100.00,WSW,256,2.0,7.0,91,0.01,,,0.01,0.000000,,2013-07-07 09:43:00,
2013-07-07 03:53:00,49.0,46.0,-100.00,WSW,256,2.0,7.0,91,0.01,,,0.01,0.000000,,2013-07-07 09:53:00,
2013-07-07 04:03:00,49.0,46.0,-100.00,WSW,256,2.0,7.0,91,0.01,,,0.01,0.000000,,2013-07-07 10:03:00,
2013-07-07 04:32:00,48.0,45.0,-100.00,NW,322,2.0,4.0,89,0.00,,,0.01,0.000000,,2013-07-07 10:32:00,
2013-07-07 04:43:00,48.0,45.0,-100.00,NW,322,2.0,4.0,89,0.00,,,0.01,0.000000,,2013-07-07 10:43:00,
2013-07-07 04:52:00,48.0,45.0,-100.00,NW,322,2.0,4.0,89,0.00,,,0.01,0.000000,,2013-07-07 10:52:00,
2013-07-07 05:02:00,48.0,45.0,-100.00,NW,322,2.0,4.0,89,0.00,,,0.01,0.000000,,2013-07-07 11:02:00,
2013-07-07 05:34:00,46.0,44.0,-100.00,NW,325,2.0,3.0,93,0.00,,,0.01,0.000000,,2013-07-07 11:34:00,
2013-07-07 05:43:00,46.0,44.0,-100.00,NW,325,2.0,3.0,93,0.00,,,0.01,0.000000,,2013-07-07 11:43:00,
2013-07-07 05:53:00,46.0,44.0,-100.00,NW,325,2.0,3.0,93,0.00,,,0.01,0.000000,,2013-07-07 11:53:00,
2013-07-07 06:02:00,46.0,44.0,-100.00,NW,325,2.0,3.0,93,0.00,,,0.01,0.000000,,2013-07-07 12:02:00,
2013-07-07 06:34:00,45.0,43.0,-100.00,NW,319,2.0,3.0,93,0.00,,,0.01,4.000000,,2013-07-07 12:34:00,
2013-07-07 06:43:00,45.0,43.0,-100.00,NW,319,2.0,3.0,93,0.00,,,0.01,4.000000,,2013-07-07 12:43:00,
2013-07-07 06:52:00,45.0,43.0,-100.00,NW,319,2.0,3.0,93,0.00,,,0.01,4.000000,,2013-07-07 12:52:00,
2013-07-07 07:02:00,45.0,43.0,-100.00,NW,319,2.0,3.0,93,0.00,,,0.01,4.000000,,2013-07-07 13:02:00,
2013-07-07 07:34:00,47.0,44.0,-100.00,NNW,339,2.0,4.0,88,0.00,,,0.01,57.000000,,2013-07-07 13:34:00,
2013-07-07 07:43:00,47.0,44.0,-100.00,NNW,339,2.0,4.0,88,0.00,,,0.01,57.000000,,2013-07-07 13:43:00,
2013-07-07 07:52:00,47.0,44.0,-100.00,NNW,339,2.0,4.0,88,0.00,,,0.01,57.000000,,2013-07-07 13:52:00,
2013-07-07 08:02:00,47.0,44.0,-100.00,NNW,339,2.0,4.0,88,0.00,,,0.01,57.000000,,2013-07-07 14:02:00,
2013-07-07 08:34:00,53.0,47.0,-100.00,NNE,26,1.0,4.0,79,0.00,,,0.01,177.000000,,2013-07-07 14:34:00,
2013-07-07 08:43:00,53.0,47.0,-100.00,NNE,26,1.0,4.0,79,0.00,,,0.01,177.000000,,2013-07-07 14:43:00,
2013-07-07 08:53:00,53.0,47.0,-100.00,NNE,26,1.0,4.0,79,0.00,,,0.01,177.000000,,2013-07-07 14:53:00,
2013-07-07 09:02:00,53.0,47.0,-100.00,NNE,26,1.0,4.0,79,0.00,,,0.01,177.000000,,2013-07-07 15:02:00,
2013-07-07 09:34:00,62.0,43.0,-100.00,North,6,5.0,8.0,49,0.00,,,0.01,586.000000,,2013-07-07 15:34:00,
2013-07-07 09:43:00,62.0,43.0,-100.00,North,6,5.0,8.0,49,0.00,,,0.01,586.000000,,2013-07-07 15:43:00,
2013-07-07 09:52:00,62.0,43.0,-100.00,North,6,5.0,8.0,49,0.00,,,0.01,586.000000,,2013-07-07 15:52:00,
2013-07-07 10:01:00,62.0,43.0,-100.00,North,6,5.0,8.0,49,0.00,,,0.01,586.000000,,2013-07-07 16:01:00,
2013-07-07 10:34:00,69.0,39.0,-100.00,NNE,16,7.0,13.0,34,0.00,,,0.01,839.000000,,2013-07-07 16:34:00,
2013-07-07 10:43:00,69.0,39.0,-100.00,NNE,16,7.0,13.0,34,0.00,,,0.01,839.000000,,2013-07-07 16:43:00,
2013-07-07 10:53:00,69.0,39.0,-100.00,NNE,16,7.0,13.0,34,0.00,,,0.01,839.000000,,2013-07-07 16:53:00,
2013-07-07 11:02:00,69.0,39.0,-100.00,NNE,16,7.0,13.0,34,0.00,,,0.01,839.000000,,2013-07-07 17:02:00,
2013-07-07 11:34:00,68.0,39.0,-100.00,North,6,8.0,17.0,34,0.00,,,0.01,826.000000,,2013-07-07 17:34:00,
2013-07-07 11:43:00,68.0,39.0,-100.00,North,6,8.0,17.0,34,0.00,,,0.01,826.000000,,2013-07-07 17:43:00,
2013-07-07 11:53:00,68.0,39.0,-100.00,North,6,8.0,17.0,34,0.00,,,0.01,826.000000,,2013-07-07 17:53:00,
2013-07-07 12:02:00,68.0,39.0,-100.00,North,6,8.0,17.0,34,0.00,,,0.01,826.000000,,2013-07-07 18:02:00,
2013-07-07 12:33:00,72.0,39.0,-100.00,North,2,9.0,16.0,30,0.00,,,0.01,992.000000,,2013-07-07 18:33:00,
2013-07-07 12:43:00,72.0,39.0,-100.00,North,2,9.0,16.0,30,0.00,,,0.01,992.000000,,2013-07-07 18:43:00,
2013-07-07 12:53:00,72.0,39.0,-100.00,North,2,9.0,16.0,30,0.00,,,0.01,992.000000,,2013-07-07 18:53:00,
2013-07-07 13:01:00,72.0,39.0,-100.00,North,2,9.0,16.0,30,0.00,,,0.01,992.000000,,2013-07-07 19:01:00,
2013-07-07 13:34:00,71.0,37.0,-100.00,North,2,6.0,15.0,29,0.00,,,0.01,496.000000,,2013-07-07 19:34:00,
2013-07-07 13:43:00,71.0,37.0,-100.00,North,2,6.0,15.0,29,0.00,,,0.01,496.000000,,2013-07-07 19:43:00,
2013-07-07 13:54:00,71.0,37.0,-100.00,North,2,6.0,15.0,29,0.00,,,0.01,496.000000,,2013-07-07 19:54:00,
2013-07-07 14:02:00,71.0,37.0,-100.00,North,2,6.0,15.0,29,0.00,,,0.01,496.000000,,2013-07-07 20:02:00,
2013-07-07 14:34:00,70.0,35.0,-100.00,NNE,13,6.0,14.0,28,0.00,,,0.01,705.000000,,2013-07-07 20:34:00,
2013-07-07 14:42:00,70.0,35.0,-100.00,NNE,13,6.0,14.0,28,0.00,,,0.01,705.000000,,2013-07-07 20:42:00,
2013-07-07 14:53:00,70.0,35.0,-100.00,NNE,13,6.0,14.0,28,0.00,,,0.01,705.000000,,2013-07-07 20:53:00,
2013-07-07 15:02:00,70.0,35.0,-100.00,NNE,13,6.0,14.0,28,0.00,,,0.01,705.000000,,2013-07-07 21:02:00,
2013-07-07 15:34:00,71.0,39.0,-100.00,ESE,116,4.0,10.0,31,0.00,,,0.01,369.000000,,2013-07-07 21:34:00,
2013-07-07 15:44:00,71.0,39.0,-100.00,ESE,116,4.0,10.0,31,0.00,,,0.01,369.000000,,2013-07-07 21:44:00,
2013-07-07 15:53:00,71.0,39.0,-100.00,ESE,116,4.0,10.0,31,0.00,,,0.01,369.000000,,2013-07-07 21:53:00,
2013-07-07 16:01:00,71.0,39.0,-100.00,ESE,116,4.0,10.0,31,0.00,,,0.01,369.000000,,2013-07-07 22:01:00,
2013-07-07 16:34:00,71.0,37.0,-100.00,SW,222,3.0,10.0,29,0.00,,,0.01,374.000000,,2013-07-07 22:34:00,
2013-07-07 16:44:00,71.0,37.0,-100.00,SW,222,3.0,10.0,29,0.00,,,0.01,374.000000,,2013-07-07 22:44:00,
2013-07-07 16:54:00,71.0,37.0,-100.00,SW,222,3.0,10.0,29,0.00,,,0.01,374.000000,,2013-07-07 22:54:00,
2013-07-07 17:02:00,71.0,37.0,-100.00,SW,222,3.0,10.0,29,0.00,,,0.01,374.000000,,2013-07-07 23:02:00,
2013-07-07 17:33:00,76.0,37.0,-100.00,NE,54,3.0,8.0,24,0.00,,,0.01,748.000000,,2013-07-07 23:33:00,
2013-07-07 17:43:00,76.0,37.0,-100.00,NE,54,3.0,8.0,24,0.00,,,0.01,748.000000,,2013-07-07 23:43:00,
2013-07-07 17:53:00,76.0,37.0,-100.00,NE,54,3.0,8.0,24,0.00,,,0.01,748.000000,,2013-07-07 23:53:00,
2013-07-07 18:01:00,76.0,37.0,-100.00,NE,54,3.0,8.0,24,0.00,,,0.01,748.000000,,2013-07-08 00:01:00,
2013-07-07 18:33:00,67.0,41.0,-100.00,SSE,147,12.0,25.0,39,0.00,,,0.01,346.000000,,2013-07-08 00:33:00,
2013-07-07 18:43:00,67.0,41.0,-100.00,SSE,147,12.0,25.0,39,0.00,,,0.01,346.000000,,2013-07-08 00:43:00,
2013-07-07 18:53:00,67.0,41.0,-100.00,SSE,147,12.0,25.0,39,0.00,,,0.01,346.000000,,2013-07-08 00:53:00,
2013-07-07 19:01:00,67.0,41.0,-100.00,SSE,147,12.0,25.0,39,0.00,,,0.01,346.000000,,2013-07-08 01:01:00,
2013-07-07 20:52:00,53.0,48.0,-100.00,SW,214,7.0,14.0,83,0.06,,,0.11,20.000000,,2013-07-08 02:52:00,
2013-07-07 21:01:00,53.0,48.0,-100.00,SW,214,7.0,14.0,83,0.06,,,0.11,20.000000,,2013-07-08 03:01:00,
2013-07-07 21:34:00,52.0,49.0,-100.00,WNW,292,2.0,9.0,90,0.00,,,0.11,2.000000,,2013-07-08 03:34:00,
2013-07-07 21:42:00,52.0,49.0,-100.00,WNW,292,2.0,9.0,90,0.00,,,0.11,2.000000,,2013-07-08 03:42:00,
2013-07-07 21:52:00,52.0,49.0,-100.00,WNW,292,2.0,9.0,90,0.00,,,0.11,2.000000,,2013-07-08 03:52:00,
2013-07-07 22:02:00,52.0,49.0,-100.00,WNW,292,2.0,9.0,90,0.00,,,0.11,2.000000,,2013-07-08 04:02:00,
2013-07-07 22:33:00,50.0,48.0,-100.00,NW,323,2.0,5.0,93,0.00,,,0.11,0.000000,,2013-07-08 04:33:00,
2013-07-07 22:42:00,50.0,48.0,-100.00,NW,323,2.0,5.0,93,0.00,,,0.11,0.000000,,2013-07-08 04:42:00,
2013-07-07 22:53:00,50.0,48.0,-100.00,NW,323,2.0,5.0,93,0.00,,,0.11,0.000000,,2013-07-08 04:53:00,
2013-07-07 23:01:00,50.0,48.0,-100.00,NW,323,2.0,5.0,93,0.00,,,0.11,0.000000,,2013-07-08 05:01:00,
2013-07-07 23:34:00,48.0,47.0,-100.00,SSE,160,1.0,3.0,95,0.00,,,0.11,0.000000,,2013-07-08 05:34:00,
2013-07-07 23:43:00,48.0,47.0,-100.00,SSE,160,1.0,3.0,95,0.00,,,0.11,0.000000,,2013-07-08 05:43:00,
2013-07-07 23:53:00,48.0,47.0,-100.00,SSE,160,1.0,3.0,95,0.00,,,0.11,0.000000,,2013-07-08 05:53:00,